<?xml version="1.0" encoding="UTF-8" standalone="no" ?>
<gpx xmlns="http://www.topografix.com/GPX/1/1" xmlns:xsi="http://www.w3.org/2001/XMLSchema-instance" xsi:schemaLocation="http://www.topografix.com/GPX/1/1 http://www.topografix.com/GPX/1/1/gpx.xsd" version="1.1" creator="VisuGPX - https://www.visugpx.com">
  <metadata>
    <name>64 - VTT - Tarsacq - Laroin - Voie Verte</name>
    <desc><![CDATA[Reconnaissance avant fin des travaux]]></desc>
  </metadata>
  <wpt lat="43.29626" lon="-0.41467">
    <ele>165</ele>
    <name><![CDATA[ARRIVEE]]></name>
    <desc><![CDATA[18-JAN-12 14:59:16]]></desc>
  </wpt>
  <wpt lat="43.29635" lon="-0.41422">
    <ele>165</ele>
    <name><![CDATA[DEPART LAROIN]]></name>
    <desc><![CDATA[18-JAN-12 14:54:52]]></desc>
  </wpt>
  <wpt lat="43.3561" lon="-0.52193">
    <ele>118</ele>
    <name><![CDATA[DEPART TARSACQ]]></name>
    <desc><![CDATA[18-JAN-12 14:09:42]]></desc>
  </wpt>
  <wpt lat="43.30388" lon="-0.43573">
    <ele>155</ele>
    <name><![CDATA[ZONE Travaux finis]]></name>
    <desc><![CDATA[18-JAN-12 14:48:40]]></desc>
  </wpt>
  <trk>
    <name><![CDATA[ACTIVE LOG 001]]></name>
    <trkseg>
      <trkpt lat="43.35612" lon="-0.52194">
        <ele>114.53418</ele>
        <time>2012-01-18T13:09:34Z</time>
      </trkpt>
      <trkpt lat="43.35611" lon="-0.52193">
        <ele>114.53418</ele>
        <time>2012-01-18T13:09:35Z</time>
      </trkpt>
      <trkpt lat="43.3561" lon="-0.52193">
        <ele>116.9375</ele>
        <time>2012-01-18T13:09:40Z</time>
      </trkpt>
      <trkpt lat="43.35609" lon="-0.52192">
        <ele>119.821411</ele>
        <time>2012-01-18T13:09:50Z</time>
      </trkpt>
      <trkpt lat="43.35608" lon="-0.52193">
        <ele>122.224731</ele>
        <time>2012-01-18T13:10:04Z</time>
      </trkpt>
      <trkpt lat="43.35608" lon="-0.52194">
        <ele>121.744141</ele>
        <time>2012-01-18T13:10:05Z</time>
      </trkpt>
      <trkpt lat="43.35612" lon="-0.52197">
        <ele>124.147339</ele>
        <time>2012-01-18T13:10:08Z</time>
      </trkpt>
      <trkpt lat="43.35628" lon="-0.52192">
        <ele>123.186157</ele>
        <time>2012-01-18T13:10:14Z</time>
      </trkpt>
      <trkpt lat="43.35637" lon="-0.52182">
        <ele>125.108765</ele>
        <time>2012-01-18T13:10:17Z</time>
      </trkpt>
      <trkpt lat="43.35645" lon="-0.52154">
        <ele>125.589355</ele>
        <time>2012-01-18T13:10:22Z</time>
      </trkpt>
      <trkpt lat="43.35648" lon="-0.52106">
        <ele>125.108765</ele>
        <time>2012-01-18T13:10:30Z</time>
      </trkpt>
      <trkpt lat="43.35641" lon="-0.52078">
        <ele>124.628052</ele>
        <time>2012-01-18T13:10:35Z</time>
      </trkpt>
      <trkpt lat="43.35595" lon="-0.51974">
        <ele>125.589355</ele>
        <time>2012-01-18T13:10:54Z</time>
      </trkpt>
      <trkpt lat="43.35564" lon="-0.51917">
        <ele>125.589355</ele>
        <time>2012-01-18T13:11:05Z</time>
      </trkpt>
      <trkpt lat="43.35576" lon="-0.51893">
        <ele>126.069946</ele>
        <time>2012-01-18T13:11:11Z</time>
      </trkpt>
      <trkpt lat="43.35587" lon="-0.51882">
        <ele>125.589355</ele>
        <time>2012-01-18T13:11:14Z</time>
      </trkpt>
      <trkpt lat="43.35597" lon="-0.51864">
        <ele>126.069946</ele>
        <time>2012-01-18T13:11:18Z</time>
      </trkpt>
      <trkpt lat="43.35626" lon="-0.51835">
        <ele>125.108765</ele>
        <time>2012-01-18T13:11:26Z</time>
      </trkpt>
      <trkpt lat="43.35679" lon="-0.51815">
        <ele>125.589355</ele>
        <time>2012-01-18T13:11:38Z</time>
      </trkpt>
      <trkpt lat="43.35702" lon="-0.51781">
        <ele>125.108765</ele>
        <time>2012-01-18T13:11:47Z</time>
      </trkpt>
      <trkpt lat="43.35688" lon="-0.51766">
        <ele>125.589355</ele>
        <time>2012-01-18T13:11:52Z</time>
      </trkpt>
      <trkpt lat="43.35673" lon="-0.51755">
        <ele>125.589355</ele>
        <time>2012-01-18T13:11:56Z</time>
      </trkpt>
      <trkpt lat="43.35657" lon="-0.51743">
        <ele>126.069946</ele>
        <time>2012-01-18T13:12:00Z</time>
      </trkpt>
      <trkpt lat="43.3565" lon="-0.51735">
        <ele>125.108765</ele>
        <time>2012-01-18T13:12:02Z</time>
      </trkpt>
      <trkpt lat="43.35642" lon="-0.51728">
        <ele>125.108765</ele>
        <time>2012-01-18T13:12:04Z</time>
      </trkpt>
      <trkpt lat="43.35616" lon="-0.51712">
        <ele>125.589355</ele>
        <time>2012-01-18T13:12:10Z</time>
      </trkpt>
      <trkpt lat="43.35608" lon="-0.51704">
        <ele>126.069946</ele>
        <time>2012-01-18T13:12:12Z</time>
      </trkpt>
      <trkpt lat="43.35563" lon="-0.51673">
        <ele>128.473389</ele>
        <time>2012-01-18T13:12:24Z</time>
      </trkpt>
      <trkpt lat="43.35489" lon="-0.51675">
        <ele>128.954102</ele>
        <time>2012-01-18T13:12:39Z</time>
      </trkpt>
      <trkpt lat="43.3544" lon="-0.51684">
        <ele>129.434692</ele>
        <time>2012-01-18T13:12:49Z</time>
      </trkpt>
      <trkpt lat="43.3542" lon="-0.51678">
        <ele>128.954102</ele>
        <time>2012-01-18T13:12:53Z</time>
      </trkpt>
      <trkpt lat="43.3535" lon="-0.51624">
        <ele>127.511963</ele>
        <time>2012-01-18T13:13:07Z</time>
      </trkpt>
      <trkpt lat="43.35329" lon="-0.51612">
        <ele>126.550659</ele>
        <time>2012-01-18T13:13:11Z</time>
      </trkpt>
      <trkpt lat="43.35274" lon="-0.51551">
        <ele>126.069946</ele>
        <time>2012-01-18T13:13:23Z</time>
      </trkpt>
      <trkpt lat="43.3524" lon="-0.51507">
        <ele>126.550659</ele>
        <time>2012-01-18T13:13:31Z</time>
      </trkpt>
      <trkpt lat="43.35208" lon="-0.51507">
        <ele>126.550659</ele>
        <time>2012-01-18T13:13:38Z</time>
      </trkpt>
      <trkpt lat="43.3518" lon="-0.51513">
        <ele>127.511963</ele>
        <time>2012-01-18T13:13:44Z</time>
      </trkpt>
      <trkpt lat="43.35136" lon="-0.51517">
        <ele>128.473389</ele>
        <time>2012-01-18T13:13:52Z</time>
      </trkpt>
      <trkpt lat="43.35106" lon="-0.51498">
        <ele>127.511963</ele>
        <time>2012-01-18T13:13:58Z</time>
      </trkpt>
      <trkpt lat="43.35081" lon="-0.51466">
        <ele>128.473389</ele>
        <time>2012-01-18T13:14:04Z</time>
      </trkpt>
      <trkpt lat="43.35068" lon="-0.51433">
        <ele>128.473389</ele>
        <time>2012-01-18T13:14:09Z</time>
      </trkpt>
      <trkpt lat="43.35065" lon="-0.51418">
        <ele>128.954102</ele>
        <time>2012-01-18T13:14:11Z</time>
      </trkpt>
      <trkpt lat="43.35036" lon="-0.51404">
        <ele>128.954102</ele>
        <time>2012-01-18T13:14:18Z</time>
      </trkpt>
      <trkpt lat="43.35021" lon="-0.51415">
        <ele>128.473389</ele>
        <time>2012-01-18T13:14:21Z</time>
      </trkpt>
      <trkpt lat="43.34988" lon="-0.51417">
        <ele>128.473389</ele>
        <time>2012-01-18T13:14:28Z</time>
      </trkpt>
      <trkpt lat="43.34902" lon="-0.51358">
        <ele>128.954102</ele>
        <time>2012-01-18T13:14:45Z</time>
      </trkpt>
      <trkpt lat="43.34831" lon="-0.51302">
        <ele>128.473389</ele>
        <time>2012-01-18T13:14:59Z</time>
      </trkpt>
      <trkpt lat="43.34766" lon="-0.51279">
        <ele>129.434692</ele>
        <time>2012-01-18T13:15:11Z</time>
      </trkpt>
      <trkpt lat="43.34736" lon="-0.51264">
        <ele>129.434692</ele>
        <time>2012-01-18T13:15:17Z</time>
      </trkpt>
      <trkpt lat="43.34703" lon="-0.51258">
        <ele>129.434692</ele>
        <time>2012-01-18T13:15:23Z</time>
      </trkpt>
      <trkpt lat="43.34694" lon="-0.51236">
        <ele>128.473389</ele>
        <time>2012-01-18T13:15:28Z</time>
      </trkpt>
      <trkpt lat="43.34731" lon="-0.51123">
        <ele>130.395996</ele>
        <time>2012-01-18T13:15:45Z</time>
      </trkpt>
      <trkpt lat="43.34735" lon="-0.51094">
        <ele>129.915283</ele>
        <time>2012-01-18T13:15:49Z</time>
      </trkpt>
      <trkpt lat="43.34742" lon="-0.51066">
        <ele>129.915283</ele>
        <time>2012-01-18T13:15:53Z</time>
      </trkpt>
      <trkpt lat="43.34748" lon="-0.51053">
        <ele>129.915283</ele>
        <time>2012-01-18T13:15:55Z</time>
      </trkpt>
      <trkpt lat="43.34744" lon="-0.51005">
        <ele>128.954102</ele>
        <time>2012-01-18T13:16:02Z</time>
      </trkpt>
      <trkpt lat="43.34735" lon="-0.50992">
        <ele>129.434692</ele>
        <time>2012-01-18T13:16:04Z</time>
      </trkpt>
      <trkpt lat="43.34723" lon="-0.50965">
        <ele>129.434692</ele>
        <time>2012-01-18T13:16:08Z</time>
      </trkpt>
      <trkpt lat="43.3468" lon="-0.50881">
        <ele>130.395996</ele>
        <time>2012-01-18T13:16:21Z</time>
      </trkpt>
      <trkpt lat="43.34624" lon="-0.50805">
        <ele>130.395996</ele>
        <time>2012-01-18T13:16:35Z</time>
      </trkpt>
      <trkpt lat="43.34606" lon="-0.5076">
        <ele>130.876709</ele>
        <time>2012-01-18T13:16:42Z</time>
      </trkpt>
      <trkpt lat="43.34593" lon="-0.50737">
        <ele>131.3573</ele>
        <time>2012-01-18T13:16:46Z</time>
      </trkpt>
      <trkpt lat="43.34527" lon="-0.50653">
        <ele>131.837891</ele>
        <time>2012-01-18T13:17:02Z</time>
      </trkpt>
      <trkpt lat="43.34473" lon="-0.50587">
        <ele>131.837891</ele>
        <time>2012-01-18T13:17:15Z</time>
      </trkpt>
      <trkpt lat="43.34439" lon="-0.50556">
        <ele>131.3573</ele>
        <time>2012-01-18T13:17:22Z</time>
      </trkpt>
      <trkpt lat="43.34423" lon="-0.50532">
        <ele>131.837891</ele>
        <time>2012-01-18T13:17:26Z</time>
      </trkpt>
      <trkpt lat="43.344" lon="-0.5051">
        <ele>131.837891</ele>
        <time>2012-01-18T13:17:31Z</time>
      </trkpt>
      <trkpt lat="43.34341" lon="-0.50488">
        <ele>131.837891</ele>
        <time>2012-01-18T13:17:42Z</time>
      </trkpt>
      <trkpt lat="43.34323" lon="-0.50473">
        <ele>131.837891</ele>
        <time>2012-01-18T13:17:46Z</time>
      </trkpt>
      <trkpt lat="43.34267" lon="-0.50396">
        <ele>132.318604</ele>
        <time>2012-01-18T13:18:00Z</time>
      </trkpt>
      <trkpt lat="43.34206" lon="-0.50347">
        <ele>132.799316</ele>
        <time>2012-01-18T13:18:13Z</time>
      </trkpt>
      <trkpt lat="43.34165" lon="-0.50321">
        <ele>133.279907</ele>
        <time>2012-01-18T13:18:21Z</time>
      </trkpt>
      <trkpt lat="43.34146" lon="-0.50304">
        <ele>133.279907</ele>
        <time>2012-01-18T13:18:25Z</time>
      </trkpt>
      <trkpt lat="43.34126" lon="-0.50275">
        <ele>133.279907</ele>
        <time>2012-01-18T13:18:30Z</time>
      </trkpt>
      <trkpt lat="43.34053" lon="-0.50185">
        <ele>132.799316</ele>
        <time>2012-01-18T13:18:47Z</time>
      </trkpt>
      <trkpt lat="43.34015" lon="-0.50142">
        <ele>132.799316</ele>
        <time>2012-01-18T13:18:55Z</time>
      </trkpt>
      <trkpt lat="43.33998" lon="-0.50113">
        <ele>132.318604</ele>
        <time>2012-01-18T13:19:00Z</time>
      </trkpt>
      <trkpt lat="43.3396" lon="-0.49978">
        <ele>133.279907</ele>
        <time>2012-01-18T13:19:19Z</time>
      </trkpt>
      <trkpt lat="43.3393" lon="-0.49912">
        <ele>134.721924</ele>
        <time>2012-01-18T13:19:29Z</time>
      </trkpt>
      <trkpt lat="43.33914" lon="-0.49895">
        <ele>135.202515</ele>
        <time>2012-01-18T13:19:33Z</time>
      </trkpt>
      <trkpt lat="43.33894" lon="-0.49866">
        <ele>135.202515</ele>
        <time>2012-01-18T13:19:38Z</time>
      </trkpt>
      <trkpt lat="43.33883" lon="-0.49835">
        <ele>134.241211</ele>
        <time>2012-01-18T13:19:42Z</time>
      </trkpt>
      <trkpt lat="43.33872" lon="-0.49818">
        <ele>133.279907</ele>
        <time>2012-01-18T13:19:45Z</time>
      </trkpt>
      <trkpt lat="43.33868" lon="-0.49794">
        <ele>133.760498</ele>
        <time>2012-01-18T13:19:50Z</time>
      </trkpt>
      <trkpt lat="43.33869" lon="-0.49767">
        <ele>133.760498</ele>
        <time>2012-01-18T13:19:59Z</time>
      </trkpt>
      <trkpt lat="43.33868" lon="-0.49768">
        <ele>134.241211</ele>
        <time>2012-01-18T13:20:04Z</time>
      </trkpt>
      <trkpt lat="43.33872" lon="-0.49769">
        <ele>131.837891</ele>
        <time>2012-01-18T13:20:17Z</time>
      </trkpt>
      <trkpt lat="43.3387" lon="-0.49771">
        <ele>133.279907</ele>
        <time>2012-01-18T13:20:52Z</time>
      </trkpt>
      <trkpt lat="43.33863" lon="-0.49759">
        <ele>134.241211</ele>
        <time>2012-01-18T13:20:57Z</time>
      </trkpt>
      <trkpt lat="43.33853" lon="-0.49723">
        <ele>134.241211</ele>
        <time>2012-01-18T13:21:04Z</time>
      </trkpt>
      <trkpt lat="43.33827" lon="-0.49617">
        <ele>134.241211</ele>
        <time>2012-01-18T13:21:20Z</time>
      </trkpt>
      <trkpt lat="43.33826" lon="-0.49595">
        <ele>134.241211</ele>
        <time>2012-01-18T13:21:23Z</time>
      </trkpt>
      <trkpt lat="43.33818" lon="-0.49567">
        <ele>134.241211</ele>
        <time>2012-01-18T13:21:27Z</time>
      </trkpt>
      <trkpt lat="43.33774" lon="-0.4947">
        <ele>134.241211</ele>
        <time>2012-01-18T13:21:42Z</time>
      </trkpt>
      <trkpt lat="43.33732" lon="-0.49441">
        <ele>134.721924</ele>
        <time>2012-01-18T13:21:51Z</time>
      </trkpt>
      <trkpt lat="43.33725" lon="-0.49429">
        <ele>134.721924</ele>
        <time>2012-01-18T13:21:53Z</time>
      </trkpt>
      <trkpt lat="43.33702" lon="-0.49344">
        <ele>134.241211</ele>
        <time>2012-01-18T13:22:05Z</time>
      </trkpt>
      <trkpt lat="43.33661" lon="-0.49288">
        <ele>133.760498</ele>
        <time>2012-01-18T13:22:16Z</time>
      </trkpt>
      <trkpt lat="43.3365" lon="-0.49284">
        <ele>133.760498</ele>
        <time>2012-01-18T13:22:18Z</time>
      </trkpt>
      <trkpt lat="43.33627" lon="-0.49245">
        <ele>134.241211</ele>
        <time>2012-01-18T13:22:25Z</time>
      </trkpt>
      <trkpt lat="43.3362" lon="-0.49203">
        <ele>135.683105</ele>
        <time>2012-01-18T13:22:31Z</time>
      </trkpt>
      <trkpt lat="43.33608" lon="-0.49181">
        <ele>135.202515</ele>
        <time>2012-01-18T13:22:35Z</time>
      </trkpt>
      <trkpt lat="43.33551" lon="-0.491">
        <ele>135.683105</ele>
        <time>2012-01-18T13:22:50Z</time>
      </trkpt>
      <trkpt lat="43.3354" lon="-0.49081">
        <ele>136.644653</ele>
        <time>2012-01-18T13:22:54Z</time>
      </trkpt>
      <trkpt lat="43.33525" lon="-0.49">
        <ele>134.721924</ele>
        <time>2012-01-18T13:23:05Z</time>
      </trkpt>
      <trkpt lat="43.33507" lon="-0.48872">
        <ele>133.760498</ele>
        <time>2012-01-18T13:23:22Z</time>
      </trkpt>
      <trkpt lat="43.33488" lon="-0.48784">
        <ele>133.760498</ele>
        <time>2012-01-18T13:23:35Z</time>
      </trkpt>
      <trkpt lat="43.3347" lon="-0.48771">
        <ele>136.16394</ele>
        <time>2012-01-18T13:23:44Z</time>
      </trkpt>
      <trkpt lat="43.33463" lon="-0.48777">
        <ele>136.644653</ele>
        <time>2012-01-18T13:23:49Z</time>
      </trkpt>
      <trkpt lat="43.33442" lon="-0.48812">
        <ele>136.644653</ele>
        <time>2012-01-18T13:24:02Z</time>
      </trkpt>
      <trkpt lat="43.33439" lon="-0.48814">
        <ele>136.644653</ele>
        <time>2012-01-18T13:24:03Z</time>
      </trkpt>
      <trkpt lat="43.33427" lon="-0.4882">
        <ele>136.644653</ele>
        <time>2012-01-18T13:24:06Z</time>
      </trkpt>
      <trkpt lat="43.33383" lon="-0.48852">
        <ele>137.605835</ele>
        <time>2012-01-18T13:24:18Z</time>
      </trkpt>
      <trkpt lat="43.33363" lon="-0.48854">
        <ele>138.086548</ele>
        <time>2012-01-18T13:24:24Z</time>
      </trkpt>
      <trkpt lat="43.33313" lon="-0.48799">
        <ele>137.605835</ele>
        <time>2012-01-18T13:24:38Z</time>
      </trkpt>
      <trkpt lat="43.33303" lon="-0.48773">
        <ele>136.644653</ele>
        <time>2012-01-18T13:24:42Z</time>
      </trkpt>
      <trkpt lat="43.33299" lon="-0.48759">
        <ele>136.16394</ele>
        <time>2012-01-18T13:24:44Z</time>
      </trkpt>
      <trkpt lat="43.33283" lon="-0.4873">
        <ele>136.644653</ele>
        <time>2012-01-18T13:24:49Z</time>
      </trkpt>
      <trkpt lat="43.33218" lon="-0.48648">
        <ele>136.16394</ele>
        <time>2012-01-18T13:25:05Z</time>
      </trkpt>
      <trkpt lat="43.33204" lon="-0.48624">
        <ele>136.644653</ele>
        <time>2012-01-18T13:25:09Z</time>
      </trkpt>
      <trkpt lat="43.33187" lon="-0.48578">
        <ele>136.644653</ele>
        <time>2012-01-18T13:25:16Z</time>
      </trkpt>
      <trkpt lat="43.33187" lon="-0.48551">
        <ele>137.605835</ele>
        <time>2012-01-18T13:25:20Z</time>
      </trkpt>
      <trkpt lat="43.3319" lon="-0.48538">
        <ele>138.567261</ele>
        <time>2012-01-18T13:25:22Z</time>
      </trkpt>
      <trkpt lat="43.33194" lon="-0.48478">
        <ele>137.125244</ele>
        <time>2012-01-18T13:25:30Z</time>
      </trkpt>
      <trkpt lat="43.33183" lon="-0.48449">
        <ele>138.086548</ele>
        <time>2012-01-18T13:25:35Z</time>
      </trkpt>
      <trkpt lat="43.33163" lon="-0.48432">
        <ele>139.528442</ele>
        <time>2012-01-18T13:25:40Z</time>
      </trkpt>
      <trkpt lat="43.33134" lon="-0.48421">
        <ele>140.489868</ele>
        <time>2012-01-18T13:25:46Z</time>
      </trkpt>
      <trkpt lat="43.33115" lon="-0.48408">
        <ele>140.489868</ele>
        <time>2012-01-18T13:25:50Z</time>
      </trkpt>
      <trkpt lat="43.33108" lon="-0.484">
        <ele>140.489868</ele>
        <time>2012-01-18T13:25:52Z</time>
      </trkpt>
      <trkpt lat="43.33099" lon="-0.48376">
        <ele>140.009155</ele>
        <time>2012-01-18T13:25:56Z</time>
      </trkpt>
      <trkpt lat="43.33088" lon="-0.48351">
        <ele>140.489868</ele>
        <time>2012-01-18T13:26:00Z</time>
      </trkpt>
      <trkpt lat="43.33081" lon="-0.4834">
        <ele>140.489868</ele>
        <time>2012-01-18T13:26:02Z</time>
      </trkpt>
      <trkpt lat="43.33052" lon="-0.48269">
        <ele>140.489868</ele>
        <time>2012-01-18T13:26:16Z</time>
      </trkpt>
      <trkpt lat="43.33051" lon="-0.48262">
        <ele>140.489868</ele>
        <time>2012-01-18T13:26:19Z</time>
      </trkpt>
      <trkpt lat="43.33044" lon="-0.48248">
        <ele>140.009155</ele>
        <time>2012-01-18T13:26:24Z</time>
      </trkpt>
      <trkpt lat="43.33044" lon="-0.4824">
        <ele>138.086548</ele>
        <time>2012-01-18T13:26:34Z</time>
      </trkpt>
      <trkpt lat="43.33047" lon="-0.4824">
        <ele>139.528442</ele>
        <time>2012-01-18T13:27:23Z</time>
      </trkpt>
      <trkpt lat="43.33054" lon="-0.48229">
        <ele>140.009155</ele>
        <time>2012-01-18T13:27:29Z</time>
      </trkpt>
      <trkpt lat="43.33058" lon="-0.48196">
        <ele>140.009155</ele>
        <time>2012-01-18T13:27:35Z</time>
      </trkpt>
      <trkpt lat="43.33057" lon="-0.48172">
        <ele>140.009155</ele>
        <time>2012-01-18T13:27:39Z</time>
      </trkpt>
      <trkpt lat="43.3303" lon="-0.48072">
        <ele>140.009155</ele>
        <time>2012-01-18T13:27:56Z</time>
      </trkpt>
      <trkpt lat="43.33011" lon="-0.48036">
        <ele>139.047852</ele>
        <time>2012-01-18T13:28:09Z</time>
      </trkpt>
      <trkpt lat="43.33009" lon="-0.48029">
        <ele>138.567261</ele>
        <time>2012-01-18T13:28:21Z</time>
      </trkpt>
      <trkpt lat="43.33007" lon="-0.48021">
        <ele>139.047852</ele>
        <time>2012-01-18T13:28:36Z</time>
      </trkpt>
      <trkpt lat="43.33007" lon="-0.48023">
        <ele>138.086548</ele>
        <time>2012-01-18T13:29:55Z</time>
      </trkpt>
      <trkpt lat="43.33006" lon="-0.48019">
        <ele>139.047852</ele>
        <time>2012-01-18T13:30:29Z</time>
      </trkpt>
      <trkpt lat="43.33" lon="-0.47996">
        <ele>140.489868</ele>
        <time>2012-01-18T13:30:41Z</time>
      </trkpt>
      <trkpt lat="43.32991" lon="-0.47957">
        <ele>139.528442</ele>
        <time>2012-01-18T13:30:48Z</time>
      </trkpt>
      <trkpt lat="43.32952" lon="-0.47874">
        <ele>140.970459</ele>
        <time>2012-01-18T13:31:02Z</time>
      </trkpt>
      <trkpt lat="43.32909" lon="-0.4776">
        <ele>140.489868</ele>
        <time>2012-01-18T13:31:21Z</time>
      </trkpt>
      <trkpt lat="43.32864" lon="-0.47652">
        <ele>140.489868</ele>
        <time>2012-01-18T13:31:38Z</time>
      </trkpt>
      <trkpt lat="43.32831" lon="-0.47564">
        <ele>140.489868</ele>
        <time>2012-01-18T13:31:52Z</time>
      </trkpt>
      <trkpt lat="43.32842" lon="-0.47529">
        <ele>140.489868</ele>
        <time>2012-01-18T13:31:59Z</time>
      </trkpt>
      <trkpt lat="43.32868" lon="-0.4751">
        <ele>140.489868</ele>
        <time>2012-01-18T13:32:06Z</time>
      </trkpt>
      <trkpt lat="43.32863" lon="-0.47486">
        <ele>140.489868</ele>
        <time>2012-01-18T13:32:11Z</time>
      </trkpt>
      <trkpt lat="43.32835" lon="-0.47396">
        <ele>140.009155</ele>
        <time>2012-01-18T13:32:24Z</time>
      </trkpt>
      <trkpt lat="43.32814" lon="-0.47233">
        <ele>140.489868</ele>
        <time>2012-01-18T13:32:45Z</time>
      </trkpt>
      <trkpt lat="43.32815" lon="-0.47114">
        <ele>141.45105</ele>
        <time>2012-01-18T13:33:01Z</time>
      </trkpt>
      <trkpt lat="43.3281" lon="-0.47056">
        <ele>142.412476</ele>
        <time>2012-01-18T13:33:09Z</time>
      </trkpt>
      <trkpt lat="43.32839" lon="-0.46966">
        <ele>143.373657</ele>
        <time>2012-01-18T13:33:22Z</time>
      </trkpt>
      <trkpt lat="43.32842" lon="-0.4696">
        <ele>143.85437</ele>
        <time>2012-01-18T13:33:23Z</time>
      </trkpt>
      <trkpt lat="43.32886" lon="-0.46879">
        <ele>143.85437</ele>
        <time>2012-01-18T13:33:37Z</time>
      </trkpt>
      <trkpt lat="43.3289" lon="-0.46874">
        <ele>143.373657</ele>
        <time>2012-01-18T13:33:38Z</time>
      </trkpt>
      <trkpt lat="43.32962" lon="-0.46803">
        <ele>142.893066</ele>
        <time>2012-01-18T13:33:54Z</time>
      </trkpt>
      <trkpt lat="43.3302" lon="-0.46729">
        <ele>142.893066</ele>
        <time>2012-01-18T13:34:08Z</time>
      </trkpt>
      <trkpt lat="43.33042" lon="-0.46715">
        <ele>142.893066</ele>
        <time>2012-01-18T13:34:12Z</time>
      </trkpt>
      <trkpt lat="43.33062" lon="-0.46686">
        <ele>142.893066</ele>
        <time>2012-01-18T13:34:17Z</time>
      </trkpt>
      <trkpt lat="43.33072" lon="-0.46658">
        <ele>142.893066</ele>
        <time>2012-01-18T13:34:21Z</time>
      </trkpt>
      <trkpt lat="43.33093" lon="-0.46631">
        <ele>143.85437</ele>
        <time>2012-01-18T13:34:26Z</time>
      </trkpt>
      <trkpt lat="43.33107" lon="-0.46618">
        <ele>143.373657</ele>
        <time>2012-01-18T13:34:29Z</time>
      </trkpt>
      <trkpt lat="43.33111" lon="-0.46567">
        <ele>142.412476</ele>
        <time>2012-01-18T13:34:36Z</time>
      </trkpt>
      <trkpt lat="43.33108" lon="-0.4656">
        <ele>141.931763</ele>
        <time>2012-01-18T13:34:37Z</time>
      </trkpt>
      <trkpt lat="43.33097" lon="-0.46536">
        <ele>141.931763</ele>
        <time>2012-01-18T13:34:40Z</time>
      </trkpt>
      <trkpt lat="43.33064" lon="-0.46479">
        <ele>143.85437</ele>
        <time>2012-01-18T13:34:49Z</time>
      </trkpt>
      <trkpt lat="43.33028" lon="-0.46447">
        <ele>143.373657</ele>
        <time>2012-01-18T13:34:56Z</time>
      </trkpt>
      <trkpt lat="43.32992" lon="-0.4643">
        <ele>143.85437</ele>
        <time>2012-01-18T13:35:02Z</time>
      </trkpt>
      <trkpt lat="43.32974" lon="-0.4641">
        <ele>144.815796</ele>
        <time>2012-01-18T13:35:06Z</time>
      </trkpt>
      <trkpt lat="43.32919" lon="-0.4636">
        <ele>144.815796</ele>
        <time>2012-01-18T13:35:17Z</time>
      </trkpt>
      <trkpt lat="43.32832" lon="-0.46242">
        <ele>145.296387</ele>
        <time>2012-01-18T13:35:38Z</time>
      </trkpt>
      <trkpt lat="43.32801" lon="-0.46205">
        <ele>144.815796</ele>
        <time>2012-01-18T13:35:45Z</time>
      </trkpt>
      <trkpt lat="43.32744" lon="-0.46103">
        <ele>144.815796</ele>
        <time>2012-01-18T13:36:00Z</time>
      </trkpt>
      <trkpt lat="43.32665" lon="-0.45985">
        <ele>145.296387</ele>
        <time>2012-01-18T13:36:19Z</time>
      </trkpt>
      <trkpt lat="43.32569" lon="-0.45892">
        <ele>146.257812</ele>
        <time>2012-01-18T13:36:39Z</time>
      </trkpt>
      <trkpt lat="43.32469" lon="-0.45785">
        <ele>146.257812</ele>
        <time>2012-01-18T13:37:01Z</time>
      </trkpt>
      <trkpt lat="43.32457" lon="-0.45766">
        <ele>146.257812</ele>
        <time>2012-01-18T13:37:04Z</time>
      </trkpt>
      <trkpt lat="43.32439" lon="-0.45745">
        <ele>146.738403</ele>
        <time>2012-01-18T13:37:08Z</time>
      </trkpt>
      <trkpt lat="43.32355" lon="-0.45692">
        <ele>148.18042</ele>
        <time>2012-01-18T13:37:24Z</time>
      </trkpt>
      <trkpt lat="43.32267" lon="-0.45628">
        <ele>149.141602</ele>
        <time>2012-01-18T13:37:41Z</time>
      </trkpt>
      <trkpt lat="43.32158" lon="-0.45555">
        <ele>148.661011</ele>
        <time>2012-01-18T13:38:02Z</time>
      </trkpt>
      <trkpt lat="43.32047" lon="-0.45504">
        <ele>149.141602</ele>
        <time>2012-01-18T13:38:21Z</time>
      </trkpt>
      <trkpt lat="43.31942" lon="-0.45445">
        <ele>149.141602</ele>
        <time>2012-01-18T13:38:39Z</time>
      </trkpt>
      <trkpt lat="43.3191" lon="-0.45419">
        <ele>149.141602</ele>
        <time>2012-01-18T13:38:46Z</time>
      </trkpt>
      <trkpt lat="43.31893" lon="-0.45402">
        <ele>149.141602</ele>
        <time>2012-01-18T13:38:51Z</time>
      </trkpt>
      <trkpt lat="43.3186" lon="-0.45351">
        <ele>147.699707</ele>
        <time>2012-01-18T13:39:00Z</time>
      </trkpt>
      <trkpt lat="43.3182" lon="-0.45323">
        <ele>148.18042</ele>
        <time>2012-01-18T13:39:08Z</time>
      </trkpt>
      <trkpt lat="43.31809" lon="-0.45297">
        <ele>148.661011</ele>
        <time>2012-01-18T13:39:12Z</time>
      </trkpt>
      <trkpt lat="43.31804" lon="-0.45276">
        <ele>148.661011</ele>
        <time>2012-01-18T13:39:15Z</time>
      </trkpt>
      <trkpt lat="43.31802" lon="-0.45245">
        <ele>148.661011</ele>
        <time>2012-01-18T13:39:20Z</time>
      </trkpt>
      <trkpt lat="43.31791" lon="-0.45227">
        <ele>148.661011</ele>
        <time>2012-01-18T13:39:24Z</time>
      </trkpt>
      <trkpt lat="43.31706" lon="-0.45186">
        <ele>149.141602</ele>
        <time>2012-01-18T13:39:42Z</time>
      </trkpt>
      <trkpt lat="43.3162" lon="-0.4519">
        <ele>150.103027</ele>
        <time>2012-01-18T13:39:59Z</time>
      </trkpt>
      <trkpt lat="43.3156" lon="-0.45194">
        <ele>150.583618</ele>
        <time>2012-01-18T13:40:10Z</time>
      </trkpt>
      <trkpt lat="43.31526" lon="-0.45177">
        <ele>150.103027</ele>
        <time>2012-01-18T13:40:17Z</time>
      </trkpt>
      <trkpt lat="43.31505" lon="-0.45168">
        <ele>150.103027</ele>
        <time>2012-01-18T13:40:21Z</time>
      </trkpt>
      <trkpt lat="43.31479" lon="-0.45162">
        <ele>150.103027</ele>
        <time>2012-01-18T13:40:26Z</time>
      </trkpt>
      <trkpt lat="43.31459" lon="-0.45156">
        <ele>150.583618</ele>
        <time>2012-01-18T13:40:30Z</time>
      </trkpt>
      <trkpt lat="43.3143" lon="-0.45136">
        <ele>149.622314</ele>
        <time>2012-01-18T13:40:36Z</time>
      </trkpt>
      <trkpt lat="43.31365" lon="-0.45118">
        <ele>149.141602</ele>
        <time>2012-01-18T13:40:47Z</time>
      </trkpt>
      <trkpt lat="43.31344" lon="-0.4511">
        <ele>149.622314</ele>
        <time>2012-01-18T13:40:51Z</time>
      </trkpt>
      <trkpt lat="43.31263" lon="-0.45058">
        <ele>149.141602</ele>
        <time>2012-01-18T13:41:07Z</time>
      </trkpt>
      <trkpt lat="43.31221" lon="-0.45034">
        <ele>148.661011</ele>
        <time>2012-01-18T13:41:15Z</time>
      </trkpt>
      <trkpt lat="43.31207" lon="-0.45024">
        <ele>149.141602</ele>
        <time>2012-01-18T13:41:18Z</time>
      </trkpt>
      <trkpt lat="43.3119" lon="-0.45008">
        <ele>150.103027</ele>
        <time>2012-01-18T13:41:22Z</time>
      </trkpt>
      <trkpt lat="43.31088" lon="-0.44925">
        <ele>149.141602</ele>
        <time>2012-01-18T13:41:43Z</time>
      </trkpt>
      <trkpt lat="43.31017" lon="-0.44874">
        <ele>149.622314</ele>
        <time>2012-01-18T13:41:58Z</time>
      </trkpt>
      <trkpt lat="43.31008" lon="-0.44865">
        <ele>150.103027</ele>
        <time>2012-01-18T13:42:00Z</time>
      </trkpt>
      <trkpt lat="43.30962" lon="-0.44807">
        <ele>149.622314</ele>
        <time>2012-01-18T13:42:14Z</time>
      </trkpt>
      <trkpt lat="43.30961" lon="-0.44809">
        <ele>149.141602</ele>
        <time>2012-01-18T13:42:28Z</time>
      </trkpt>
      <trkpt lat="43.30961" lon="-0.4481">
        <ele>148.18042</ele>
        <time>2012-01-18T13:43:06Z</time>
      </trkpt>
      <trkpt lat="43.30955" lon="-0.44792">
        <ele>149.141602</ele>
        <time>2012-01-18T13:43:20Z</time>
      </trkpt>
      <trkpt lat="43.30947" lon="-0.44775">
        <ele>149.622314</ele>
        <time>2012-01-18T13:43:24Z</time>
      </trkpt>
      <trkpt lat="43.30935" lon="-0.44759">
        <ele>149.141602</ele>
        <time>2012-01-18T13:43:28Z</time>
      </trkpt>
      <trkpt lat="43.30901" lon="-0.44733">
        <ele>149.622314</ele>
        <time>2012-01-18T13:43:37Z</time>
      </trkpt>
      <trkpt lat="43.30874" lon="-0.4469">
        <ele>150.103027</ele>
        <time>2012-01-18T13:43:46Z</time>
      </trkpt>
      <trkpt lat="43.30846" lon="-0.44648">
        <ele>150.103027</ele>
        <time>2012-01-18T13:43:56Z</time>
      </trkpt>
      <trkpt lat="43.30843" lon="-0.44646">
        <ele>149.622314</ele>
        <time>2012-01-18T13:43:57Z</time>
      </trkpt>
      <trkpt lat="43.30834" lon="-0.44642">
        <ele>151.064209</ele>
        <time>2012-01-18T13:44:00Z</time>
      </trkpt>
      <trkpt lat="43.30819" lon="-0.44622">
        <ele>153.467651</ele>
        <time>2012-01-18T13:44:12Z</time>
      </trkpt>
      <trkpt lat="43.30817" lon="-0.44614">
        <ele>152.986938</ele>
        <time>2012-01-18T13:44:15Z</time>
      </trkpt>
      <trkpt lat="43.30816" lon="-0.44602">
        <ele>152.025757</ele>
        <time>2012-01-18T13:44:17Z</time>
      </trkpt>
      <trkpt lat="43.30811" lon="-0.44579">
        <ele>150.103027</ele>
        <time>2012-01-18T13:44:20Z</time>
      </trkpt>
      <trkpt lat="43.30798" lon="-0.44547">
        <ele>150.583618</ele>
        <time>2012-01-18T13:44:25Z</time>
      </trkpt>
      <trkpt lat="43.3077" lon="-0.44423">
        <ele>150.583618</ele>
        <time>2012-01-18T13:44:43Z</time>
      </trkpt>
      <trkpt lat="43.3074" lon="-0.44292">
        <ele>150.103027</ele>
        <time>2012-01-18T13:45:02Z</time>
      </trkpt>
      <trkpt lat="43.30708" lon="-0.44207">
        <ele>151.544922</ele>
        <time>2012-01-18T13:45:15Z</time>
      </trkpt>
      <trkpt lat="43.30701" lon="-0.44197">
        <ele>151.064209</ele>
        <time>2012-01-18T13:45:17Z</time>
      </trkpt>
      <trkpt lat="43.30652" lon="-0.44114">
        <ele>151.544922</ele>
        <time>2012-01-18T13:45:33Z</time>
      </trkpt>
      <trkpt lat="43.30603" lon="-0.44034">
        <ele>152.025757</ele>
        <time>2012-01-18T13:45:48Z</time>
      </trkpt>
      <trkpt lat="43.30548" lon="-0.43942">
        <ele>153.467651</ele>
        <time>2012-01-18T13:46:05Z</time>
      </trkpt>
      <trkpt lat="43.30496" lon="-0.43857">
        <ele>154.909546</ele>
        <time>2012-01-18T13:46:23Z</time>
      </trkpt>
      <trkpt lat="43.30485" lon="-0.43829">
        <ele>154.909546</ele>
        <time>2012-01-18T13:46:28Z</time>
      </trkpt>
      <trkpt lat="43.30481" lon="-0.43803">
        <ele>154.909546</ele>
        <time>2012-01-18T13:46:32Z</time>
      </trkpt>
      <trkpt lat="43.30475" lon="-0.43773">
        <ele>154.909546</ele>
        <time>2012-01-18T13:46:37Z</time>
      </trkpt>
      <trkpt lat="43.30434" lon="-0.43679">
        <ele>155.390259</ele>
        <time>2012-01-18T13:46:54Z</time>
      </trkpt>
      <trkpt lat="43.30432" lon="-0.43667">
        <ele>154.909546</ele>
        <time>2012-01-18T13:46:56Z</time>
      </trkpt>
      <trkpt lat="43.30395" lon="-0.43587">
        <ele>155.870972</ele>
        <time>2012-01-18T13:47:10Z</time>
      </trkpt>
      <trkpt lat="43.30387" lon="-0.43576">
        <ele>154.909546</ele>
        <time>2012-01-18T13:47:18Z</time>
      </trkpt>
      <trkpt lat="43.30392" lon="-0.43577">
        <ele>154.428955</ele>
        <time>2012-01-18T13:47:59Z</time>
      </trkpt>
      <trkpt lat="43.30388" lon="-0.43574">
        <ele>155.390259</ele>
        <time>2012-01-18T13:48:52Z</time>
      </trkpt>
      <trkpt lat="43.3039" lon="-0.43573">
        <ele>155.390259</ele>
        <time>2012-01-18T13:48:57Z</time>
      </trkpt>
      <trkpt lat="43.3037" lon="-0.43539">
        <ele>156.351562</ele>
        <time>2012-01-18T13:49:09Z</time>
      </trkpt>
      <trkpt lat="43.30371" lon="-0.43502">
        <ele>154.909546</ele>
        <time>2012-01-18T13:49:14Z</time>
      </trkpt>
      <trkpt lat="43.30375" lon="-0.43456">
        <ele>154.428955</ele>
        <time>2012-01-18T13:49:20Z</time>
      </trkpt>
      <trkpt lat="43.30316" lon="-0.43326">
        <ele>154.909546</ele>
        <time>2012-01-18T13:49:37Z</time>
      </trkpt>
      <trkpt lat="43.30277" lon="-0.43252">
        <ele>155.390259</ele>
        <time>2012-01-18T13:49:48Z</time>
      </trkpt>
      <trkpt lat="43.30254" lon="-0.43153">
        <ele>156.351562</ele>
        <time>2012-01-18T13:50:01Z</time>
      </trkpt>
      <trkpt lat="43.30223" lon="-0.43014">
        <ele>154.909546</ele>
        <time>2012-01-18T13:50:19Z</time>
      </trkpt>
      <trkpt lat="43.30221" lon="-0.43006">
        <ele>154.909546</ele>
        <time>2012-01-18T13:50:20Z</time>
      </trkpt>
      <trkpt lat="43.3018" lon="-0.42886">
        <ele>155.870972</ele>
        <time>2012-01-18T13:50:37Z</time>
      </trkpt>
      <trkpt lat="43.30157" lon="-0.42784">
        <ele>155.870972</ele>
        <time>2012-01-18T13:50:50Z</time>
      </trkpt>
      <trkpt lat="43.30119" lon="-0.42633">
        <ele>156.832153</ele>
        <time>2012-01-18T13:51:10Z</time>
      </trkpt>
      <trkpt lat="43.30083" lon="-0.42532">
        <ele>156.832153</ele>
        <time>2012-01-18T13:51:24Z</time>
      </trkpt>
      <trkpt lat="43.30038" lon="-0.42427">
        <ele>158.27417</ele>
        <time>2012-01-18T13:51:39Z</time>
      </trkpt>
      <trkpt lat="43.30021" lon="-0.42381">
        <ele>158.27417</ele>
        <time>2012-01-18T13:51:45Z</time>
      </trkpt>
      <trkpt lat="43.30013" lon="-0.42348">
        <ele>157.793579</ele>
        <time>2012-01-18T13:51:49Z</time>
      </trkpt>
      <trkpt lat="43.30011" lon="-0.4233">
        <ele>157.312866</ele>
        <time>2012-01-18T13:51:51Z</time>
      </trkpt>
      <trkpt lat="43.29991" lon="-0.42264">
        <ele>156.351562</ele>
        <time>2012-01-18T13:51:59Z</time>
      </trkpt>
      <trkpt lat="43.29988" lon="-0.42154">
        <ele>157.312866</ele>
        <time>2012-01-18T13:52:12Z</time>
      </trkpt>
      <trkpt lat="43.29975" lon="-0.42099">
        <ele>157.793579</ele>
        <time>2012-01-18T13:52:19Z</time>
      </trkpt>
      <trkpt lat="43.2995" lon="-0.42055">
        <ele>157.312866</ele>
        <time>2012-01-18T13:52:26Z</time>
      </trkpt>
      <trkpt lat="43.29914" lon="-0.41985">
        <ele>158.754761</ele>
        <time>2012-01-18T13:52:37Z</time>
      </trkpt>
      <trkpt lat="43.29868" lon="-0.41925">
        <ele>159.235474</ele>
        <time>2012-01-18T13:52:48Z</time>
      </trkpt>
      <trkpt lat="43.29843" lon="-0.41845">
        <ele>160.67749</ele>
        <time>2012-01-18T13:53:00Z</time>
      </trkpt>
      <trkpt lat="43.29841" lon="-0.41839">
        <ele>160.67749</ele>
        <time>2012-01-18T13:53:01Z</time>
      </trkpt>
      <trkpt lat="43.29827" lon="-0.41817">
        <ele>160.67749</ele>
        <time>2012-01-18T13:53:05Z</time>
      </trkpt>
      <trkpt lat="43.29813" lon="-0.41787">
        <ele>160.67749</ele>
        <time>2012-01-18T13:53:10Z</time>
      </trkpt>
      <trkpt lat="43.29797" lon="-0.41706">
        <ele>161.158203</ele>
        <time>2012-01-18T13:53:21Z</time>
      </trkpt>
      <trkpt lat="43.29794" lon="-0.41683">
        <ele>161.638916</ele>
        <time>2012-01-18T13:53:24Z</time>
      </trkpt>
      <trkpt lat="43.29793" lon="-0.41651">
        <ele>161.158203</ele>
        <time>2012-01-18T13:53:28Z</time>
      </trkpt>
      <trkpt lat="43.29782" lon="-0.41608">
        <ele>162.600098</ele>
        <time>2012-01-18T13:53:34Z</time>
      </trkpt>
      <trkpt lat="43.29768" lon="-0.41569">
        <ele>161.638916</ele>
        <time>2012-01-18T13:53:39Z</time>
      </trkpt>
      <trkpt lat="43.2976" lon="-0.41537">
        <ele>161.158203</ele>
        <time>2012-01-18T13:53:43Z</time>
      </trkpt>
      <trkpt lat="43.29708" lon="-0.41458">
        <ele>161.638916</ele>
        <time>2012-01-18T13:53:56Z</time>
      </trkpt>
      <trkpt lat="43.297" lon="-0.41419">
        <ele>161.158203</ele>
        <time>2012-01-18T13:54:02Z</time>
      </trkpt>
      <trkpt lat="43.29698" lon="-0.41407">
        <ele>160.67749</ele>
        <time>2012-01-18T13:54:04Z</time>
      </trkpt>
      <trkpt lat="43.29683" lon="-0.41377">
        <ele>160.196899</ele>
        <time>2012-01-18T13:54:11Z</time>
      </trkpt>
      <trkpt lat="43.29668" lon="-0.41372">
        <ele>160.67749</ele>
        <time>2012-01-18T13:54:15Z</time>
      </trkpt>
      <trkpt lat="43.29653" lon="-0.41378">
        <ele>161.638916</ele>
        <time>2012-01-18T13:54:20Z</time>
      </trkpt>
      <trkpt lat="43.29638" lon="-0.41409">
        <ele>165.003418</ele>
        <time>2012-01-18T13:54:29Z</time>
      </trkpt>
      <trkpt lat="43.29635" lon="-0.41422">
        <ele>165.964722</ele>
        <time>2012-01-18T13:54:41Z</time>
      </trkpt>
      <trkpt lat="43.29636" lon="-0.41421">
        <ele>165.003418</ele>
        <time>2012-01-18T13:55:06Z</time>
      </trkpt>
      <trkpt lat="43.29636" lon="-0.41421">
        <ele>165.484131</ele>
        <time>2012-01-18T13:55:09Z</time>
      </trkpt>
    </trkseg>
  </trk>
</gpx>